Terminal Aerodrome Forecast
Issued by NWS

Home | Current Version | Previous Version | Text Only | Print | Product List | Glossary On
Versions: 1 2 3 4 5 6 7 8 9 10 11 12 13 14
000
FTUS46 KMTR 030600 AAA
TAFOAK
TAF AMD
KOAK 030700Z 0307/0412 31004KT P6SM FEW008
     FM030900 29005KT P6SM OVC010
     FM031800 29007KT P6SM SCT015
     FM032000 29015KT P6SM FEW015
     FM040500 29010KT P6SM SCT015
     FM040700 29006KT P6SM BKN012=

USA.gov is the U.S. government's official web portal to all federal, state and local government web resources and services.